Manderfield, Utah
Current Conditions -  °F | °C
As of 11:52 PM on Friday 28 Nov 2014 (Local Time) from KMLF Reporting Station
Clear Clear  
Wind Chill: 31°   Ceiling: Unl
Heat Index: 40°   Visibility: 10mi
Dew Point: 14°   Wind: 18mph
Humidity: 35%   Direction: 210°SSW
Pressure: 29.91"   Gusts: NA
Location:  38.344°N, 112.579°W
Report Text: KMLF 290652Z AUTO 21016KT 10SM CLR 04/M10 A2991 RMK AO2 SLP101 T00441100 401831017 TSNO
Loading
Personal Weather Stations






























Interactive Weather Map New forecast layout! Learn more

10-Day Weather Forecast

Advertisements
Track Severe Weather on mobile